sensor_id;sensor_type;location;lat;lon;timestamp;pressure;altitude;pressure_sealevel;temperature;humidity
32197;BME280;18697;42.770;23.400;2023-05-07T00:00:42;95852.00;;;13.36;66.25
32197;BME280;18697;42.770;23.400;2023-05-07T00:03:08;95851.41;;;13.32;66.35
32197;BME280;18697;42.770;23.400;2023-05-07T00:05:33;95852.53;;;13.25;66.44
32197;BME280;18697;42.770;23.400;2023-05-07T00:07:58;95861.88;;;13.22;66.68
32197;BME280;18697;42.770;23.400;2023-05-07T00:10:24;95863.69;;;13.25;67.03
32197;BME280;18697;42.770;23.400;2023-05-07T00:12:50;95858.47;;;13.18;67.04
32197;BME280;18697;42.770;23.400;2023-05-07T00:15:15;95853.19;;;13.20;66.87
32197;BME280;18697;42.770;23.400;2023-05-07T00:17:41;95851.16;;;12.97;67.36
32197;BME280;18697;42.770;23.400;2023-05-07T00:20:07;95854.84;;;13.03;67.16
32197;BME280;18697;42.770;23.400;2023-05-07T00:22:32;95866.00;;;13.03;67.78
32197;BME280;18697;42.770;23.400;2023-05-07T00:24:58;95853.28;;;13.02;67.63
32197;BME280;18697;42.770;23.400;2023-05-07T00:27:24;95858.31;;;12.89;69.25
32197;BME280;18697;42.770;23.400;2023-05-07T00:29:50;95851.44;;;12.99;70.12
32197;BME280;18697;42.770;23.400;2023-05-07T00:32:15;95853.72;;;13.09;69.37
32197;BME280;18697;42.770;23.400;2023-05-07T00:34:40;95852.16;;;12.84;70.17
32197;BME280;18697;42.770;23.400;2023-05-07T00:37:06;95852.38;;;12.72;70.87
32197;BME280;18697;42.770;23.400;2023-05-07T00:39:33;95858.19;;;12.59;72.02
32197;BME280;18697;42.770;23.400;2023-05-07T00:41:59;95860.16;;;12.35;73.85
32197;BME280;18697;42.770;23.400;2023-05-07T00:44:25;95863.25;;;12.37;73.22
32197;BME280;18697;42.770;23.400;2023-05-07T00:46:51;95862.94;;;11.83;75.24
32197;BME280;18697;42.770;23.400;2023-05-07T00:49:18;95869.06;;;12.06;74.50
32197;BME280;18697;42.770;23.400;2023-05-07T00:51:43;95866.16;;;11.91;75.51
32197;BME280;18697;42.770;23.400;2023-05-07T00:54:10;95871.03;;;12.14;75.30
32197;BME280;18697;42.770;23.400;2023-05-07T00:56:36;95875.97;;;12.29;74.70
32197;BME280;18697;42.770;23.400;2023-05-07T00:59:03;95882.75;;;12.28;74.20
32197;BME280;18697;42.770;23.400;2023-05-07T01:01:28;95878.75;;;12.20;74.08
32197;BME280;18697;42.770;23.400;2023-05-07T01:03:54;95880.22;;;11.97;75.24
32197;BME280;18697;42.770;23.400;2023-05-07T01:06:21;95882.84;;;12.00;75.00
32197;BME280;18697;42.770;23.400;2023-05-07T01:08:48;95880.81;;;12.10;74.62
32197;BME280;18697;42.770;23.400;2023-05-07T01:11:16;95886.19;;;12.23;74.38
32197;BME280;18697;42.770;23.400;2023-05-07T01:13:42;95890.03;;;12.34;73.21
32197;BME280;18697;42.770;23.400;2023-05-07T01:16:09;95886.00;;;12.35;72.85
32197;BME280;18697;42.770;23.400;2023-05-07T01:18:35;95879.50;;;12.29;72.08
32197;BME280;18697;42.770;23.400;2023-05-07T01:21:01;95888.63;;;12.30;71.84
32197;BME280;18697;42.770;23.400;2023-05-07T01:23:29;95885.84;;;12.30;71.42
32197;BME280;18697;42.770;23.400;2023-05-07T01:25:55;95880.00;;;12.18;71.54
32197;BME280;18697;42.770;23.400;2023-05-07T01:28:21;95886.66;;;12.21;71.55
32197;BME280;18697;42.770;23.400;2023-05-07T01:31:01;95878.47;;;12.17;71.05
32197;BME280;18697;42.770;23.400;2023-05-07T01:33:29;95888.66;;;12.21;71.29
32197;BME280;18697;42.770;23.400;2023-05-07T01:35:57;95883.41;;;12.23;71.04
32197;BME280;18697;42.770;23.400;2023-05-07T01:38:25;95881.72;;;12.16;70.98
32197;BME280;18697;42.770;23.400;2023-05-07T01:40:51;95879.41;;;12.14;71.18
32197;BME280;18697;42.770;23.400;2023-05-07T01:43:18;95873.50;;;12.22;69.32
32197;BME280;18697;42.770;23.400;2023-05-07T01:45:44;95866.88;;;12.10;68.29
32197;BME280;18697;42.770;23.400;2023-05-07T01:48:11;95859.63;;;12.03;69.31
32197;BME280;18697;42.770;23.400;2023-05-07T01:50:38;95868.91;;;12.00;69.88
32197;BME280;18697;42.770;23.400;2023-05-07T01:53:03;95858.78;;;11.79;69.82
32197;BME280;18697;42.770;23.400;2023-05-07T01:55:29;95860.47;;;11.58;71.44
32197;BME280;18697;42.770;23.400;2023-05-07T01:57:54;95861.25;;;11.13;73.67
32197;BME280;18697;42.770;23.400;2023-05-07T02:00:20;95854.59;;;10.92;75.40
32197;BME280;18697;42.770;23.400;2023-05-07T02:02:45;95847.34;;;10.95;74.61
32197;BME280;18697;42.770;23.400;2023-05-07T02:05:11;95849.94;;;10.89;76.09
32197;BME280;18697;42.770;23.400;2023-05-07T02:07:36;95849.06;;;11.10;75.07
32197;BME280;18697;42.770;23.400;2023-05-07T02:10:01;95852.31;;;11.09;74.54
32197;BME280;18697;42.770;23.400;2023-05-07T02:12:28;95841.47;;;11.20;74.54
32197;BME280;18697;42.770;23.400;2023-05-07T02:14:53;95836.53;;;11.33;74.28
32197;BME280;18697;42.770;23.400;2023-05-07T02:17:19;95836.22;;;11.40;74.29
32197;BME280;18697;42.770;23.400;2023-05-07T02:19:44;95840.06;;;11.43;73.76
32197;BME280;18697;42.770;23.400;2023-05-07T02:22:10;95834.22;;;11.50;74.06
32197;BME280;18697;42.770;23.400;2023-05-07T02:24:35;95839.75;;;11.59;73.98
32197;BME280;18697;42.770;23.400;2023-05-07T02:27:01;95839.91;;;11.65;73.22
32197;BME280;18697;42.770;23.400;2023-05-07T02:29:27;95846.69;;;11.73;72.49
32197;BME280;18697;42.770;23.400;2023-05-07T02:31:52;95842.06;;;11.61;71.43
32197;BME280;18697;42.770;23.400;2023-05-07T02:34:18;95840.22;;;11.58;70.91
32197;BME280;18697;42.770;23.400;2023-05-07T02:36:43;95841.16;;;11.45;70.38
32197;BME280;18697;42.770;23.400;2023-05-07T02:39:08;95833.44;;;11.40;70.79
32197;BME280;18697;42.770;23.400;2023-05-07T02:41:34;95848.28;;;11.37;70.38
32197;BME280;18697;42.770;23.400;2023-05-07T02:43:59;95836.84;;;11.17;70.59
32197;BME280;18697;42.770;23.400;2023-05-07T02:46:24;95845.34;;;11.23;71.19
32197;BME280;18697;42.770;23.400;2023-05-07T02:48:50;95834.06;;;11.26;71.40
32197;BME280;18697;42.770;23.400;2023-05-07T02:51:19;95838.69;;;11.29;70.96
32197;BME280;18697;42.770;23.400;2023-05-07T02:53:44;95841.16;;;11.27;70.66
32197;BME280;18697;42.770;23.400;2023-05-07T02:56:10;95842.25;;;11.30;70.71
32197;BME280;18697;42.770;23.400;2023-05-07T02:58:35;95842.09;;;11.33;70.96
32197;BME280;18697;42.770;23.400;2023-05-07T03:01:01;95844.56;;;11.40;70.85
32197;BME280;18697;42.770;23.400;2023-05-07T03:03:26;95850.75;;;11.35;71.05
32197;BME280;18697;42.770;23.400;2023-05-07T03:05:52;95847.97;;;11.26;71.67
32197;BME280;18697;42.770;23.400;2023-05-07T03:08:17;95846.41;;;11.34;71.81
32197;BME280;18697;42.770;23.400;2023-05-07T03:10:42;95844.88;;;11.33;71.69
32197;BME280;18697;42.770;23.400;2023-05-07T03:13:08;95857.22;;;11.32;71.75
32197;BME280;18697;42.770;23.400;2023-05-07T03:15:33;95854.44;;;11.32;71.29
32197;BME280;18697;42.770;23.400;2023-05-07T03:17:58;95849.50;;;11.27;71.37
32197;BME280;18697;42.770;23.400;2023-05-07T03:20:24;95853.84;;;11.28;71.46
32197;BME280;18697;42.770;23.400;2023-05-07T03:22:49;95846.09;;;11.32;71.63
32197;BME280;18697;42.770;23.400;2023-05-07T03:25:15;95855.06;;;11.36;71.55
32197;BME280;18697;42.770;23.400;2023-05-07T03:27:40;95851.97;;;11.25;72.24
32197;BME280;18697;42.770;23.400;2023-05-07T03:30:07;95856.31;;;11.26;72.48
32197;BME280;18697;42.770;23.400;2023-05-07T03:32:34;95854.44;;;11.32;72.56
32197;BME280;18697;42.770;23.400;2023-05-07T03:35:00;95859.09;;;11.44;72.08
32197;BME280;18697;42.770;23.400;2023-05-07T03:37:26;95855.06;;;11.36;71.86
32197;BME280;18697;42.770;23.400;2023-05-07T03:39:51;95866.19;;;11.27;70.26
32197;BME280;18697;42.770;23.400;2023-05-07T03:42:16;95867.59;;;11.04;70.73
32197;BME280;18697;42.770;23.400;2023-05-07T03:44:41;95867.41;;;10.90;71.78
32197;BME280;18697;42.770;23.400;2023-05-07T03:47:07;95866.78;;;10.85;72.21
32197;BME280;18697;42.770;23.400;2023-05-07T03:49:33;95871.06;;;10.77;72.17
32197;BME280;18697;42.770;23.400;2023-05-07T03:51:58;95866.63;;;10.89;72.58
32197;BME280;18697;42.770;23.400;2023-05-07T03:54:23;95873.28;;;11.01;72.42
32197;BME280;18697;42.770;23.400;2023-05-07T03:56:49;95884.69;;;10.94;72.20
32197;BME280;18697;42.770;23.400;2023-05-07T03:59:15;95887.47;;;10.84;72.40
32197;BME280;18697;42.770;23.400;2023-05-07T04:01:40;95879.72;;;10.79;72.48
32197;BME280;18697;42.770;23.400;2023-05-07T04:04:05;95884.97;;;10.77;72.46
32197;BME280;18697;42.770;23.400;2023-05-07T04:06:31;95880.97;;;10.78;72.08
32197;BME280;18697;42.770;23.400;2023-05-07T04:08:57;95897.03;;;10.83;71.93
32197;BME280;18697;42.770;23.400;2023-05-07T04:11:22;95900.88;;;10.77;72.26
32197;BME280;18697;42.770;23.400;2023-05-07T04:13:47;95903.16;;;10.69;72.89
32197;BME280;18697;42.770;23.400;2023-05-07T04:16:13;95912.13;;;10.73;73.08
32197;BME280;18697;42.770;23.400;2023-05-07T04:18:38;95912.13;;;10.73;73.18
32197;BME280;18697;42.770;23.400;2023-05-07T04:21:04;95909.75;;;10.63;72.56
32197;BME280;18697;42.770;23.400;2023-05-07T04:23:29;95908.81;;;10.57;72.94
32197;BME280;18697;42.770;23.400;2023-05-07T04:25:55;95917.97;;;10.66;73.22
32197;BME280;18697;42.770;23.400;2023-05-07T04:28:21;95922.47;;;10.73;73.45
32197;BME280;18697;42.770;23.400;2023-05-07T04:30:46;95932.47;;;10.70;73.93
32197;BME280;18697;42.770;23.400;2023-05-07T04:33:11;95923.56;;;10.84;74.20
32197;BME280;18697;42.770;23.400;2023-05-07T04:35:38;95932.88;;;11.00;73.86
32197;BME280;18697;42.770;23.400;2023-05-07T04:38:04;95928.75;;;11.13;73.77
32197;BME280;18697;42.770;23.400;2023-05-07T04:40:29;95929.66;;;11.19;74.06
32197;BME280;18697;42.770;23.400;2023-05-07T04:42:55;95928.44;;;11.30;74.57
32197;BME280;18697;42.770;23.400;2023-05-07T04:45:20;95936.19;;;11.44;74.33
32197;BME280;18697;42.770;23.400;2023-05-07T04:47:45;95932.78;;;11.40;74.88
32197;BME280;18697;42.770;23.400;2023-05-07T04:50:11;95923.84;;;11.54;74.88
32197;BME280;18697;42.770;23.400;2023-05-07T04:52:36;95928.63;;;11.63;74.42
32197;BME280;18697;42.770;23.400;2023-05-07T04:55:02;95930.63;;;11.62;74.94
32197;BME280;18697;42.770;23.400;2023-05-07T04:57:27;95931.72;;;11.65;75.12
32197;BME280;18697;42.770;23.400;2023-05-07T04:59:53;95932.19;;;11.72;75.51
32197;BME280;18697;42.770;23.400;2023-05-07T05:02:19;95934.06;;;11.84;75.51
32197;BME280;18697;42.770;23.400;2023-05-07T05:04:44;95925.06;;;11.99;75.20
32197;BME280;18697;42.770;23.400;2023-05-07T05:07:10;95924.28;;;12.07;75.71
32197;BME280;18697;42.770;23.400;2023-05-07T05:09:35;95929.19;;;12.22;75.57
32197;BME280;18697;42.770;23.400;2023-05-07T05:12:00;95932.72;;;12.31;75.70
32197;BME280;18697;42.770;23.400;2023-05-07T05:14:26;95933.78;;;12.43;75.66
32197;BME280;18697;42.770;23.400;2023-05-07T05:16:51;95934.22;;;12.50;76.17
32197;BME280;18697;42.770;23.400;2023-05-07T05:19:16;95932.50;;;12.62;76.28
32197;BME280;18697;42.770;23.400;2023-05-07T05:21:42;95940.91;;;12.77;76.29
32197;BME280;18697;42.770;23.400;2023-05-07T05:24:08;95923.38;;;12.86;76.77
32197;BME280;18697;42.770;23.400;2023-05-07T05:26:33;95935.34;;;13.10;76.60
32197;BME280;18697;42.770;23.400;2023-05-07T05:28:58;95936.69;;;13.24;76.22
32197;BME280;18697;42.770;23.400;2023-05-07T05:31:24;95937.78;;;13.41;75.71
32197;BME280;18697;42.770;23.400;2023-05-07T05:33:49;95933.88;;;13.47;75.46
32197;BME280;18697;42.770;23.400;2023-05-07T05:36:15;95934.75;;;13.54;75.96
32197;BME280;18697;42.770;23.400;2023-05-07T05:38:40;95936.84;;;13.68;75.93
32197;BME280;18697;42.770;23.400;2023-05-07T05:41:05;95931.94;;;13.77;75.21
32197;BME280;18697;42.770;23.400;2023-05-07T05:43:31;95934.47;;;13.90;75.57
32197;BME280;18697;42.770;23.400;2023-05-07T05:45:57;95934.41;;;13.99;75.05
32197;BME280;18697;42.770;23.400;2023-05-07T05:48:23;95937.19;;;14.14;74.85
32197;BME280;18697;42.770;23.400;2023-05-07T05:50:48;95933.81;;;14.25;74.47
32197;BME280;18697;42.770;23.400;2023-05-07T05:53:13;95938.56;;;14.33;74.79
32197;BME280;18697;42.770;23.400;2023-05-07T05:55:39;95928.72;;;14.38;73.35
32197;BME280;18697;42.770;23.400;2023-05-07T05:58:04;95931.34;;;14.56;73.49
32197;BME280;18697;42.770;23.400;2023-05-07T06:00:30;95930.19;;;14.63;73.09
32197;BME280;18697;42.770;23.400;2023-05-07T06:02:55;95932.97;;;14.77;72.99
32197;BME280;18697;42.770;23.400;2023-05-07T06:05:21;95934.38;;;14.88;72.75
32197;BME280;18697;42.770;23.400;2023-05-07T06:07:46;95939.53;;;15.09;72.80
32197;BME280;18697;42.770;23.400;2023-05-07T06:10:12;95932.16;;;15.27;72.37
32197;BME280;18697;42.770;23.400;2023-05-07T06:12:37;95928.75;;;15.37;71.99
32197;BME280;18697;42.770;23.400;2023-05-07T06:15:03;95927.44;;;15.53;70.97
32197;BME280;18697;42.770;23.400;2023-05-07T06:17:29;95922.88;;;15.76;70.65
32197;BME280;18697;42.770;23.400;2023-05-07T06:19:54;95921.31;;;15.95;70.57
32197;BME280;18697;42.770;23.400;2023-05-07T06:22:20;95921.22;;;16.10;69.21
32197;BME280;18697;42.770;23.400;2023-05-07T06:24:45;95934.63;;;16.26;69.51
32197;BME280;18697;42.770;23.400;2023-05-07T06:27:11;95919.88;;;16.57;67.76
32197;BME280;18697;42.770;23.400;2023-05-07T06:29:36;95922.53;;;16.66;67.97
32197;BME280;18697;42.770;23.400;2023-05-07T06:32:09;95917.41;;;16.65;67.17
32197;BME280;18697;42.770;23.400;2023-05-07T06:34:36;95907.72;;;16.66;65.95
32197;BME280;18697;42.770;23.400;2023-05-07T06:37:02;95919.34;;;16.27;67.31
32197;BME280;18697;42.770;23.400;2023-05-07T06:39:27;95903.13;;;16.37;67.29
32197;BME280;18697;42.770;23.400;2023-05-07T06:41:53;95909.81;;;16.71;65.97
32197;BME280;18697;42.770;23.400;2023-05-07T06:44:18;95901.13;;;16.69;66.23
32197;BME280;18697;42.770;23.400;2023-05-07T06:46:44;95896.09;;;16.79;65.43
32197;BME280;18697;42.770;23.400;2023-05-07T06:49:10;95892.38;;;16.93;66.65
32197;BME280;18697;42.770;23.400;2023-05-07T06:51:35;95888.88;;;17.03;66.51
32197;BME280;18697;42.770;23.400;2023-05-07T06:54:01;95891.41;;;17.01;66.49
32197;BME280;18697;42.770;23.400;2023-05-07T06:56:26;95894.59;;;16.83;64.74
32197;BME280;18697;42.770;23.400;2023-05-07T06:58:52;95885.47;;;16.88;65.65
32197;BME280;18697;42.770;23.400;2023-05-07T07:01:17;95883.88;;;16.82;65.23
32197;BME280;18697;42.770;23.400;2023-05-07T07:03:43;95889.69;;;16.72;66.02
32197;BME280;18697;42.770;23.400;2023-05-07T07:06:08;95892.22;;;17.13;66.14
32197;BME280;18697;42.770;23.400;2023-05-07T07:08:33;95889.81;;;17.37;65.08
32197;BME280;18697;42.770;23.400;2023-05-07T07:10:59;95889.00;;;17.85;63.65
32197;BME280;18697;42.770;23.400;2023-05-07T07:13:25;95891.34;;;17.98;62.02
32197;BME280;18697;42.770;23.400;2023-05-07T07:15:51;95886.72;;;17.78;61.60
32197;BME280;18697;42.770;23.400;2023-05-07T07:18:17;95888.25;;;17.96;62.53
32197;BME280;18697;42.770;23.400;2023-05-07T07:20:42;95880.38;;;18.11;62.64
32197;BME280;18697;42.770;23.400;2023-05-07T07:23:09;95876.53;;;17.97;62.18
32197;BME280;18697;42.770;23.400;2023-05-07T07:25:35;95880.69;;;18.35;62.22
32197;BME280;18697;42.770;23.400;2023-05-07T07:28:00;95878.06;;;18.04;62.85
32197;BME280;18697;42.770;23.400;2023-05-07T07:30:26;95879.84;;;18.01;61.64
32197;BME280;18697;42.770;23.400;2023-05-07T07:32:51;95885.00;;;18.20;61.40
32197;BME280;18697;42.770;23.400;2023-05-07T07:35:17;95875.84;;;18.53;61.56
32197;BME280;18697;42.770;23.400;2023-05-07T07:37:43;95879.69;;;18.78;59.29
32197;BME280;18697;42.770;23.400;2023-05-07T07:40:09;95875.81;;;18.58;59.43
32197;BME280;18697;42.770;23.400;2023-05-07T07:42:34;95884.53;;;18.88;59.37
32197;BME280;18697;42.770;23.400;2023-05-07T07:45:00;95887.31;;;19.16;58.34
32197;BME280;18697;42.770;23.400;2023-05-07T07:47:25;95886.56;;;19.04;57.99
32197;BME280;18697;42.770;23.400;2023-05-07T07:49:50;95891.16;;;19.13;58.78
32197;BME280;18697;42.770;23.400;2023-05-07T07:52:16;95879.28;;;19.43;57.47
32197;BME280;18697;42.770;23.400;2023-05-07T07:54:41;95872.28;;;19.77;56.43
32197;BME280;18697;42.770;23.400;2023-05-07T07:57:07;95882.03;;;20.17;56.87
32197;BME280;18697;42.770;23.400;2023-05-07T07:59:32;95884.97;;;20.42;54.63
32197;BME280;18697;42.770;23.400;2023-05-07T08:01:57;95877.31;;;20.72;54.26
32197;BME280;18697;42.770;23.400;2023-05-07T08:04:23;95868.97;;;20.85;52.07
32197;BME280;18697;42.770;23.400;2023-05-07T08:06:48;95872.16;;;21.00;52.50
32197;BME280;18697;42.770;23.400;2023-05-07T08:09:14;95873.44;;;20.99;51.59
32197;BME280;18697;42.770;23.400;2023-05-07T08:11:39;95869.56;;;20.78;51.63
32197;BME280;18697;42.770;23.400;2023-05-07T08:14:05;95868.97;;;20.55;51.51
32197;BME280;18697;42.770;23.400;2023-05-07T08:16:30;95862.63;;;20.49;52.13
32197;BME280;18697;42.770;23.400;2023-05-07T08:18:56;95858.50;;;20.50;50.93
32197;BME280;18697;42.770;23.400;2023-05-07T08:21:22;95869.53;;;20.48;50.70
32197;BME280;18697;42.770;23.400;2023-05-07T08:23:49;95863.84;;;20.54;51.19
32197;BME280;18697;42.770;23.400;2023-05-07T08:26:14;95869.09;;;20.98;50.48
32197;BME280;18697;42.770;23.400;2023-05-07T08:28:40;95858.63;;;20.93;49.06
32197;BME280;18697;42.770;23.400;2023-05-07T08:31:05;95850.50;;;20.84;49.03
32197;BME280;18697;42.770;23.400;2023-05-07T08:33:31;95855.81;;;20.93;49.97
32197;BME280;18697;42.770;23.400;2023-05-07T08:35:56;95848.50;;;20.49;47.71
32197;BME280;18697;42.770;23.400;2023-05-07T08:38:22;95855.50;;;20.73;48.56
32197;BME280;18697;42.770;23.400;2023-05-07T08:40:47;95849.03;;;21.02;47.37
32197;BME280;18697;42.770;23.400;2023-05-07T08:43:13;95851.72;;;20.64;45.70
32197;BME280;18697;42.770;23.400;2023-05-07T08:45:40;95841.91;;;20.95;46.25
32197;BME280;18697;42.770;23.400;2023-05-07T08:48:14;95842.91;;;21.28;48.06
32197;BME280;18697;42.770;23.400;2023-05-07T08:50:40;95846.06;;;21.62;47.52
32197;BME280;18697;42.770;23.400;2023-05-07T08:53:06;95834.09;;;21.75;47.71
32197;BME280;18697;42.770;23.400;2023-05-07T08:55:31;95840.22;;;21.97;46.08
32197;BME280;18697;42.770;23.400;2023-05-07T08:57:58;95838.94;;;21.98;47.06
32197;BME280;18697;42.770;23.400;2023-05-07T09:00:24;95831.75;;;21.97;47.83
32197;BME280;18697;42.770;23.400;2023-05-07T09:02:49;95827.38;;;21.78;46.43
32197;BME280;18697;42.770;23.400;2023-05-07T09:05:15;95830.13;;;21.46;45.97
32197;BME280;18697;42.770;23.400;2023-05-07T09:07:40;95822.69;;;22.05;45.00
32197;BME280;18697;42.770;23.400;2023-05-07T09:10:06;95818.84;;;22.21;45.70
32197;BME280;18697;42.770;23.400;2023-05-07T09:12:32;95811.38;;;22.37;46.43
32197;BME280;18697;42.770;23.400;2023-05-07T09:14:58;95803.28;;;22.59;44.72
32197;BME280;18697;42.770;23.400;2023-05-07T09:17:25;95808.84;;;22.97;43.55
32197;BME280;18697;42.770;23.400;2023-05-07T09:19:50;95808.19;;;22.91;42.40
32197;BME280;18697;42.770;23.400;2023-05-07T09:22:16;95800.13;;;22.95;44.34
32197;BME280;18697;42.770;23.400;2023-05-07T09:24:50;95806.66;;;23.30;43.04
32197;BME280;18697;42.770;23.400;2023-05-07T09:27:17;95802.47;;;22.46;39.39
32197;BME280;18697;42.770;23.400;2023-05-07T09:29:43;95805.34;;;22.91;41.27
32197;BME280;18697;42.770;23.400;2023-05-07T09:32:09;95799.06;;;22.66;39.62
32197;BME280;18697;42.770;23.400;2023-05-07T09:34:35;95801.75;;;22.58;37.52
32197;BME280;18697;42.770;23.400;2023-05-07T09:37:02;95802.00;;;22.74;37.58
32197;BME280;18697;42.770;23.400;2023-05-07T09:39:48;95799.34;;;22.94;38.86
32197;BME280;18697;42.770;23.400;2023-05-07T09:42:14;95796.41;;;22.87;37.91
32197;BME280;18697;42.770;23.400;2023-05-07T09:44:40;95792.81;;;23.00;37.60
32197;BME280;18697;42.770;23.400;2023-05-07T09:47:06;95785.28;;;22.89;37.61
32197;BME280;18697;42.770;23.400;2023-05-07T09:49:37;95785.72;;;23.19;36.98
32197;BME280;18697;42.770;23.400;2023-05-07T09:52:06;95778.31;;;23.30;37.83
32197;BME280;18697;42.770;23.400;2023-05-07T09:54:34;95778.53;;;23.58;37.63
32197;BME280;18697;42.770;23.400;2023-05-07T09:57:04;95787.25;;;23.60;36.40
32197;BME280;18697;42.770;23.400;2023-05-07T09:59:32;95779.50;;;23.34;35.33
32197;BME280;18697;42.770;23.400;2023-05-07T10:01:59;95778.75;;;23.60;35.81
32197;BME280;18697;42.770;23.400;2023-05-07T10:04:28;95773.63;;;23.72;34.48
32197;BME280;18697;42.770;23.400;2023-05-07T10:06:54;95775.25;;;23.67;34.76
32197;BME280;18697;42.770;23.400;2023-05-07T10:09:21;95766.94;;;24.03;35.07
32197;BME280;18697;42.770;23.400;2023-05-07T10:11:48;95766.69;;;23.80;34.38
32197;BME280;18697;42.770;23.400;2023-05-07T10:14:14;95767.41;;;23.94;34.71
32197;BME280;18697;42.770;23.400;2023-05-07T10:16:40;95761.78;;;24.15;35.74
32197;BME280;18697;42.770;23.400;2023-05-07T10:19:09;95758.59;;;24.18;35.40
32197;BME280;18697;42.770;23.400;2023-05-07T10:21:39;95752.56;;;24.35;34.35
32197;BME280;18697;42.770;23.400;2023-05-07T10:24:14;95748.66;;;24.67;34.50
32197;BME280;18697;42.770;23.400;2023-05-07T10:26:44;95746.06;;;24.97;36.27
32197;BME280;18697;42.770;23.400;2023-05-07T10:29:39;95751.97;;;24.78;32.39
32197;BME280;18697;42.770;23.400;2023-05-07T10:32:25;95744.50;;;24.68;34.25
32197;BME280;18697;42.770;23.400;2023-05-07T10:34:58;95743.44;;;24.99;34.17
32197;BME280;18697;42.770;23.400;2023-05-07T10:37:25;95749.53;;;24.82;32.41
32197;BME280;18697;42.770;23.400;2023-05-07T10:39:51;95736.03;;;25.32;33.20
32197;BME280;18697;42.770;23.400;2023-05-07T10:42:17;95736.47;;;24.58;31.10
32197;BME280;18697;42.770;23.400;2023-05-07T10:44:42;95731.22;;;24.91;32.18
32197;BME280;18697;42.770;23.400;2023-05-07T10:47:13;95732.28;;;25.45;32.03
32197;BME280;18697;42.770;23.400;2023-05-07T10:52:15;95725.69;;;26.01;31.03
32197;BME280;18697;42.770;23.400;2023-05-07T10:54:42;95731.22;;;25.99;30.45
32197;BME280;18697;42.770;23.400;2023-05-07T10:57:34;95734.97;;;25.86;30.31
32197;BME280;18697;42.770;23.400;2023-05-07T11:16:29;95721.91;;;27.28;30.64
32197;BME280;18697;42.770;23.400;2023-05-07T11:18:55;95731.09;;;26.96;28.29
32197;BME280;18697;42.770;23.400;2023-05-07T11:21:35;95726.84;;;26.21;30.21
32197;BME280;18697;42.770;23.400;2023-05-07T11:24:02;95727.22;;;26.17;29.67
32197;BME280;18697;42.770;23.400;2023-05-07T11:26:30;95723.84;;;26.27;29.20
32197;BME280;18697;42.770;23.400;2023-05-07T11:28:56;95711.94;;;26.59;31.27
32197;BME280;18697;42.770;23.400;2023-05-07T11:31:24;95708.13;;;26.71;31.00
32197;BME280;18697;42.770;23.400;2023-05-07T11:33:51;95695.91;;;26.94;30.40
32197;BME280;18697;42.770;23.400;2023-05-07T11:36:17;95703.53;;;27.06;29.31
32197;BME280;18697;42.770;23.400;2023-05-07T11:38:43;95702.56;;;27.19;30.75
32197;BME280;18697;42.770;23.400;2023-05-07T11:41:09;95701.75;;;27.34;29.56
32197;BME280;18697;42.770;23.400;2023-05-07T11:43:34;95701.34;;;27.45;29.66
32197;BME280;18697;42.770;23.400;2023-05-07T11:46:11;95706.00;;;27.58;28.96
32197;BME280;18697;42.770;23.400;2023-05-07T11:48:37;95699.38;;;27.63;29.40
32197;BME280;18697;42.770;23.400;2023-05-07T11:51:04;95702.75;;;27.69;28.81
32197;BME280;18697;42.770;23.400;2023-05-07T11:53:38;95697.38;;;27.80;29.22
32197;BME280;18697;42.770;23.400;2023-05-07T11:56:14;95707.28;;;27.79;27.54
32197;BME280;18697;42.770;23.400;2023-05-07T11:58:41;95709.13;;;27.92;29.34
32197;BME280;18697;42.770;23.400;2023-05-07T12:01:10;95696.91;;;27.99;29.13
32197;BME280;18697;42.770;23.400;2023-05-07T12:03:37;95698.59;;;28.02;29.53
32197;BME280;18697;42.770;23.400;2023-05-07T12:06:05;95691.19;;;27.99;29.55
32197;BME280;18697;42.770;23.400;2023-05-07T12:08:31;95693.47;;;28.01;27.16
32197;BME280;18697;42.770;23.400;2023-05-07T12:10:56;95691.09;;;27.34;27.38
32197;BME280;18697;42.770;23.400;2023-05-07T12:13:25;95689.94;;;27.45;26.93
32197;BME280;18697;42.770;23.400;2023-05-07T12:15:55;95687.38;;;27.57;30.46
32197;BME280;18697;42.770;23.400;2023-05-07T12:18:22;95672.94;;;27.62;29.72
32197;BME280;18697;42.770;23.400;2023-05-07T12:20:48;95662.63;;;27.67;29.74
32197;BME280;18697;42.770;23.400;2023-05-07T12:23:14;95672.53;;;27.58;28.95
32197;BME280;18697;42.770;23.400;2023-05-07T12:25:40;95672.94;;;27.55;27.80
32197;BME280;18697;42.770;23.400;2023-05-07T12:28:17;95666.81;;;27.66;28.97
32197;BME280;18697;42.770;23.400;2023-05-07T12:30:43;95669.50;;;27.56;28.08
32197;BME280;18697;42.770;23.400;2023-05-07T12:33:09;95669.69;;;27.58;27.88
32197;BME280;18697;42.770;23.400;2023-05-07T12:35:42;95656.75;;;27.57;28.20
32197;BME280;18697;42.770;23.400;2023-05-07T12:38:12;95664.19;;;27.53;28.01
32197;BME280;18697;42.770;23.400;2023-05-07T12:40:40;95666.81;;;27.18;26.07
32197;BME280;18697;42.770;23.400;2023-05-07T12:43:06;95652.16;;;27.29;27.45
32197;BME280;18697;42.770;23.400;2023-05-07T12:45:37;95657.16;;;26.91;26.85
32197;BME280;18697;42.770;23.400;2023-05-07T12:48:02;95658.72;;;26.76;26.96
32197;BME280;18697;42.770;23.400;2023-05-07T12:50:31;95648.25;;;26.79;28.25
32197;BME280;18697;42.770;23.400;2023-05-07T12:52:57;95637.78;;;26.89;28.04
32197;BME280;18697;42.770;23.400;2023-05-07T12:55:23;95638.38;;;27.03;27.19
32197;BME280;18697;42.770;23.400;2023-05-07T12:57:49;95630.38;;;26.94;27.14
32197;BME280;18697;42.770;23.400;2023-05-07T13:00:16;95614.81;;;27.02;29.95
32197;BME280;18697;42.770;23.400;2023-05-07T13:02:42;95624.59;;;27.24;27.45
32197;BME280;18697;42.770;23.400;2023-05-07T13:05:09;95619.44;;;27.30;27.30